Time;durP1;ratioP1;P1;durP2;ratioP2;P2;SDS_P1;SDS_P2;PMS_P1;PMS_P2;Temp;Humidity;BMP_temperature;BMP_pressure;BME280_temperature;BME280_humidity;BME280_pressure;Samples;Min_cycle;Max_cycle;Signal;HPM_P1;HPM_P2
2022/08/23 00:01:26;;;;;;;21.83;10.00;;;;;;;;;;4374724;32;20281;-91
2022/08/23 00:03:56;;;;;;;15.30;9.63;;;;;;;;;;4374541;32;20636;-91
2022/08/23 00:06:24;;;;;;;13.77;10.20;;;;;;;;;;4374881;32;20594;-91
2022/08/23 00:08:52;;;;;;;18.15;9.70;;;;;;;;;;4374700;32;20285;-91
2022/08/23 00:11:36;;;;;;;15.50;9.95;;;;;;;;;;4374405;32;20560;-89
2022/08/23 00:14:09;;;;;;;14.38;10.10;;;;;;;;;;4374588;32;20606;-91
2022/08/23 00:16:37;;;;;;;13.77;9.80;;;;;;;;;;4374634;32;20636;-90
2022/08/23 00:19:06;;;;;;;11.32;9.13;;;;;;;;;;4374844;32;20515;-91
2022/08/23 00:21:35;;;;;;;27.98;9.75;;;;;;;;;;4375603;32;20607;-91
2022/08/23 00:24:04;;;;;;;11.50;10.13;;;;;;;;;;4379882;32;20209;-90
2022/08/23 00:26:51;;;;;;;11.35;9.15;;;;;;;;;;4385555;32;20289;-91
2022/08/23 00:29:18;;;;;;;11.65;8.90;;;;;;;;;;4388059;32;20228;-90
2022/08/23 00:31:47;;;;;;;15.65;9.35;;;;;;;;;;4388079;32;20218;-90
2022/08/23 00:34:23;;;;;;;14.73;8.77;;;;;;;;;;4381802;32;20638;-90
2022/08/23 00:36:54;;;;;;;13.45;7.97;;;;;;;;;;4374223;32;20655;-91
2022/08/23 00:39:23;;;;;;;12.35;8.77;;;;;;;;;;4374287;32;20639;-92
2022/08/23 00:41:52;;;;;;;15.35;8.52;;;;;;;;;;4374057;32;20587;-91
2022/08/23 00:50:03;;;;;;;16.27;8.80;;;;;;;;;;4375961;32;20256;-90
2022/08/23 00:52:38;;;;;;;10.48;8.65;;;;;;;;;;4375542;32;20547;-90
2022/08/23 00:55:06;;;;;;;12.90;8.90;;;;;;;;;;4375621;32;20277;-91
2022/08/23 00:57:36;;;;;;;11.35;8.32;;;;;;;;;;4374021;32;20535;-91
2022/08/23 01:00:06;;;;;;;10.85;8.40;;;;;;;;;;4375769;32;20539;-91
2022/08/23 01:02:34;;;;;;;12.10;8.68;;;;;;;;;;4374337;32;20537;-91
2022/08/23 01:05:05;;;;;;;13.65;8.15;;;;;;;;;;4374471;32;20749;-91
2022/08/23 01:07:44;;;;;;;12.57;8.40;;;;;;;;;;4373900;32;20680;-91
2022/08/23 01:10:17;;;;;;;10.80;8.80;;;;;;;;;;4373829;32;20477;-91
2022/08/23 01:12:54;;;;;;;11.63;9.00;;;;;;;;;;4373837;32;20501;-91
2022/08/23 01:15:27;;;;;;;9.77;8.30;;;;;;;;;;4373538;32;20222;-91
2022/08/23 01:18:01;;;;;;;13.45;8.10;;;;;;;;;;4373988;32;20261;-91
2022/08/23 01:20:37;;;;;;;13.80;8.82;;;;;;;;;;4373647;32;20682;-92
2022/08/23 01:23:09;;;;;;;11.30;7.50;;;;;;;;;;4374265;32;20610;-90
2022/08/23 01:25:39;;;;;;;13.68;8.07;;;;;;;;;;4373860;32;20327;-90
2022/08/23 01:28:07;;;;;;;9.73;8.43;;;;;;;;;;4373497;32;20293;-90
2022/08/23 01:30:35;;;;;;;12.70;9.23;;;;;;;;;;4373522;32;20565;-90
2022/08/23 01:33:05;;;;;;;14.75;8.80;;;;;;;;;;4373470;32;20607;-90
2022/08/23 01:35:38;;;;;;;20.12;9.45;;;;;;;;;;4373709;32;20559;-90
2022/08/23 01:38:06;;;;;;;16.80;8.57;;;;;;;;;;4373468;32;20198;-89
2022/08/23 01:40:34;;;;;;;13.55;8.88;;;;;;;;;;4373302;32;20614;-90
2022/08/23 01:43:04;;;;;;;27.27;10.32;;;;;;;;;;4373439;32;20709;-90
2022/08/23 01:45:33;;;;;;;13.30;9.50;;;;;;;;;;4375324;32;20411;-89
2022/08/23 01:48:01;;;;;;;12.43;10.70;;;;;;;;;;4376340;32;20570;-90
2022/08/23 01:50:29;;;;;;;20.58;13.00;;;;;;;;;;4376410;32;20269;-90
2022/08/23 01:52:57;;;;;;;13.35;10.80;;;;;;;;;;4377049;32;20348;-90
2022/08/23 01:55:35;;;;;;;15.95;10.88;;;;;;;;;;4377427;32;20591;-89
2022/08/23 01:58:06;;;;;;;16.73;11.18;;;;;;;;;;4376815;32;20611;-90
2022/08/23 02:00:37;;;;;;;15.75;10.80;;;;;;;;;;4376223;32;20505;-91
2022/08/23 02:03:06;;;;;;;16.85;10.50;;;;;;;;;;4376729;32;20626;-91
2022/08/23 02:05:36;;;;;;;14.02;10.38;;;;;;;;;;4376357;32;20545;-91
2022/08/23 02:10:49;;;;;;;14.48;11.77;;;;;;;;;;4375726;32;20237;-90
2022/08/23 02:13:18;;;;;;;17.77;11.77;;;;;;;;;;4376384;32;20596;-91
2022/08/23 02:15:49;;;;;;;19.90;11.70;;;;;;;;;;4376123;32;20268;-91
2022/08/23 02:18:18;;;;;;;13.93;11.63;;;;;;;;;;4376279;32;20547;-91
2022/08/23 02:20:46;;;;;;;13.13;11.40;;;;;;;;;;4375867;32;20532;-91
2022/08/23 02:23:14;;;;;;;17.70;13.57;;;;;;;;;;4376103;32;20599;-91
2022/08/23 02:25:42;;;;;;;19.17;10.88;;;;;;;;;;4375831;32;20591;-91
2022/08/23 02:28:10;;;;;;;21.52;12.32;;;;;;;;;;4375972;32;20546;-89
2022/08/23 02:30:40;;;;;;;19.15;12.77;;;;;;;;;;4375897;32;20603;-91
2022/08/23 02:33:07;;;;;;;20.73;13.52;;;;;;;;;;4375850;32;20474;-90
2022/08/23 02:35:35;;;;;;;19.37;13.62;;;;;;;;;;4375909;32;20607;-91
2022/08/23 02:38:03;;;;;;;19.92;12.90;;;;;;;;;;4375814;32;20451;-91
2022/08/23 02:40:31;;;;;;;22.13;14.73;;;;;;;;;;4376053;32;20566;-91
2022/08/23 02:42:59;;;;;;;13.68;12.18;;;;;;;;;;4375734;32;20570;-92
2022/08/23 02:45:26;;;;;;;20.98;13.35;;;;;;;;;;4375665;32;20563;-92
2022/08/23 02:47:56;;;;;;;16.67;13.07;;;;;;;;;;4375634;32;20571;-91
2022/08/23 02:50:24;;;;;;;18.77;14.20;;;;;;;;;;4375460;32;20549;-92
2022/08/23 02:52:51;;;;;;;18.83;12.35;;;;;;;;;;4375726;32;20494;-91
2022/08/23 02:55:19;;;;;;;19.42;12.63;;;;;;;;;;4375483;32;20305;-91
2022/08/23 02:57:47;;;;;;;16.25;13.07;;;;;;;;;;4375056;32;20516;-91
2022/08/23 03:00:16;;;;;;;24.50;12.20;;;;;;;;;;4375403;32;20531;-91
2022/08/23 03:02:44;;;;;;;15.32;13.75;;;;;;;;;;4375371;32;20615;-92
2022/08/23 03:05:14;;;;;;;17.87;12.77;;;;;;;;;;4375321;32;20700;-90
2022/08/23 03:07:42;;;;;;;16.30;12.48;;;;;;;;;;4375502;32;20661;-90
2022/08/23 03:10:12;;;;;;;13.68;10.68;;;;;;;;;;4375812;32;20543;-90
2022/08/23 03:12:40;;;;;;;17.20;13.02;;;;;;;;;;4375168;32;20258;-90
2022/08/23 03:15:08;;;;;;;13.82;10.88;;;;;;;;;;4375384;32;20552;-91
2022/08/23 03:17:36;;;;;;;14.73;10.75;;;;;;;;;;4375251;32;20240;-91
2022/08/23 03:20:05;;;;;;;13.88;11.20;;;;;;;;;;4375061;32;20481;-91
2022/08/23 03:22:34;;;;;;;18.12;11.40;;;;;;;;;;4375228;32;20579;-89
2022/08/23 03:25:02;;;;;;;19.85;13.07;;;;;;;;;;4374983;32;20707;-89
2022/08/23 03:27:30;;;;;;;12.37;10.25;;;;;;;;;;4374912;32;20584;-90
2022/08/23 03:29:58;;;;;;;13.40;11.88;;;;;;;;;;4375144;32;20687;-90
2022/08/23 03:32:26;;;;;;;24.30;12.52;;;;;;;;;;4375203;32;20584;-90
2022/08/23 03:34:53;;;;;;;15.23;11.52;;;;;;;;;;4375292;32;20540;-90
2022/08/23 03:37:21;;;;;;;14.35;11.15;;;;;;;;;;4374707;32;20659;-90
2022/08/23 03:39:51;;;;;;;18.42;12.18;;;;;;;;;;4374791;32;20558;-89
2022/08/23 03:42:18;;;;;;;30.33;15.23;;;;;;;;;;4374829;32;20563;-88
2022/08/23 03:44:45;;;;;;;30.52;14.87;;;;;;;;;;4374796;32;20206;-87
2022/08/23 03:47:13;;;;;;;26.15;12.52;;;;;;;;;;4374733;32;20528;-89
2022/08/23 03:49:41;;;;;;;21.50;11.85;;;;;;;;;;4375254;32;20497;-88
2022/08/23 03:52:24;;;;;;;24.85;13.35;;;;;;;;;;4375227;32;20595;-87
2022/08/23 03:55:00;;;;;;;16.87;13.30;;;;;;;;;;4375565;32;20616;-86
2022/08/23 03:57:28;;;;;;;18.73;13.38;;;;;;;;;;4375200;32;20612;-89
2022/08/23 03:59:58;;;;;;;20.73;12.75;;;;;;;;;;4374651;32;20519;-90
2022/08/23 04:02:26;;;;;;;20.23;11.18;;;;;;;;;;4374537;32;20559;-89
2022/08/23 04:04:56;;;;;;;19.85;11.90;;;;;;;;;;4374478;32;20588;-88
2022/08/23 04:07:25;;;;;;;18.60;12.85;;;;;;;;;;4375117;32;20657;-88
2022/08/23 04:09:53;;;;;;;27.62;14.25;;;;;;;;;;4374747;32;20643;-89
2022/08/23 04:12:22;;;;;;;23.45;12.15;;;;;;;;;;4374517;32;20546;-89
2022/08/23 04:14:49;;;;;;;20.17;13.50;;;;;;;;;;4374417;32;20671;-87
2022/08/23 04:17:19;;;;;;;21.17;13.25;;;;;;;;;;4374453;32;20631;-88
2022/08/23 04:19:48;;;;;;;17.23;11.77;;;;;;;;;;4374117;32;20521;-89
2022/08/23 04:22:21;;;;;;;20.52;12.15;;;;;;;;;;4374067;32;20316;-87
2022/08/23 04:24:48;;;;;;;15.93;13.15;;;;;;;;;;4374729;32;20607;-87
2022/08/23 04:27:16;;;;;;;19.17;12.73;;;;;;;;;;4373993;32;20222;-89
2022/08/23 04:29:46;;;;;;;19.55;12.55;;;;;;;;;;4374796;32;20658;-89
2022/08/23 04:32:14;;;;;;;19.20;12.13;;;;;;;;;;4374500;32;20671;-89
2022/08/23 04:34:46;;;;;;;18.05;12.48;;;;;;;;;;4374339;32;20601;-89
2022/08/23 04:37:14;;;;;;;17.25;11.45;;;;;;;;;;4374066;32;20738;-89
2022/08/23 04:42:27;;;;;;;18.42;11.65;;;;;;;;;;4373997;32;20666;-89
2022/08/23 04:44:56;;;;;;;18.12;11.82;;;;;;;;;;4373875;32;20505;-88
2022/08/23 04:47:24;;;;;;;19.45;11.95;;;;;;;;;;4373953;32;20600;-87
2022/08/23 04:49:52;;;;;;;16.30;12.63;;;;;;;;;;4374129;32;20515;-88
2022/08/23 04:52:19;;;;;;;20.10;12.45;;;;;;;;;;4373336;32;20538;-89
2022/08/23 04:54:47;;;;;;;18.77;12.45;;;;;;;;;;4373922;32;20207;-86
2022/08/23 04:57:15;;;;;;;21.48;13.38;;;;;;;;;;4373762;32;20647;-86
2022/08/23 04:59:43;;;;;;;20.27;12.88;;;;;;;;;;4373571;32;20622;-86
2022/08/23 05:02:13;;;;;;;22.23;13.62;;;;;;;;;;4373370;32;20497;-86
2022/08/23 05:04:40;;;;;;;24.92;13.77;;;;;;;;;;4373541;32;20512;-87
2022/08/23 05:07:08;;;;;;;24.10;13.00;;;;;;;;;;4373522;32;20622;-86
2022/08/23 05:09:36;;;;;;;16.55;12.37;;;;;;;;;;4373496;32;20574;-87
2022/08/23 05:12:13;;;;;;;16.55;13.68;;;;;;;;;;4373386;32;20376;-86
2022/08/23 05:14:42;;;;;;;26.73;13.62;;;;;;;;;;4373827;32;20602;-84
2022/08/23 05:17:11;;;;;;;17.75;13.20;;;;;;;;;;4373084;32;20572;-86
2022/08/23 05:19:40;;;;;;;16.42;13.35;;;;;;;;;;4372433;32;20656;-84
2022/08/23 05:22:08;;;;;;;22.80;14.95;;;;;;;;;;4373209;32;20595;-85
2022/08/23 05:24:38;;;;;;;16.77;13.35;;;;;;;;;;4373081;32;20497;-86
2022/08/23 05:27:08;;;;;;;17.35;13.75;;;;;;;;;;4373578;32;20570;-85
2022/08/23 05:29:39;;;;;;;16.80;13.40;;;;;;;;;;4373133;32;20582;-86
2022/08/23 05:32:09;;;;;;;98.85;31.33;;;;;;;;;;4373620;32;20521;-90
2022/08/23 05:34:40;;;;;;;22.50;15.00;;;;;;;;;;4373562;32;20553;-85
2022/08/23 05:37:08;;;;;;;37.95;19.08;;;;;;;;;;4373261;32;20547;-86
2022/08/23 05:39:35;;;;;;;51.35;21.40;;;;;;;;;;4372976;32;20545;-84
2022/08/23 05:42:03;;;;;;;49.50;20.05;;;;;;;;;;4373103;32;20629;-85
2022/08/23 05:44:31;;;;;;;41.10;18.17;;;;;;;;;;4373022;32;20667;-85
2022/08/23 05:46:58;;;;;;;16.15;14.43;;;;;;;;;;4373208;32;20516;-85
2022/08/23 05:49:25;;;;;;;29.52;17.77;;;;;;;;;;4373113;32;20309;-85
2022/08/23 05:51:55;;;;;;;21.70;13.85;;;;;;;;;;4373048;32;20269;-85
2022/08/23 05:54:23;;;;;;;16.87;13.57;;;;;;;;;;4372971;32;20332;-87
2022/08/23 05:56:50;;;;;;;22.33;14.38;;;;;;;;;;4373305;32;20244;-85
2022/08/23 05:59:19;;;;;;;26.48;16.40;;;;;;;;;;4373464;32;20586;-85
2022/08/23 06:01:46;;;;;;;22.23;16.75;;;;;;;;;;4373212;32;20264;-84
2022/08/23 06:04:14;;;;;;;18.77;14.87;;;;;;;;;;4373278;32;20241;-84
2022/08/23 06:06:43;;;;;;;17.73;14.40;;;;;;;;;;4373066;32;20654;-85
2022/08/23 06:09:14;;;;;;;20.08;14.35;;;;;;;;;;4372666;32;20607;-85
2022/08/23 06:11:44;;;;;;;22.80;14.63;;;;;;;;;;4373440;32;20615;-86
2022/08/23 06:14:12;;;;;;;24.40;14.20;;;;;;;;;;4373560;32;20596;-89
2022/08/23 06:16:43;;;;;;;18.73;15.20;;;;;;;;;;4372957;32;20532;-86
2022/08/23 06:19:11;;;;;;;23.75;14.57;;;;;;;;;;4372993;32;20705;-82
2022/08/23 06:21:39;;;;;;;18.85;13.75;;;;;;;;;;4372890;32;20576;-82
2022/08/23 06:24:07;;;;;;;20.83;14.40;;;;;;;;;;4372882;32;20534;-82
2022/08/23 06:26:39;;;;;;;14.80;13.30;;;;;;;;;;4372897;32;20505;-83
2022/08/23 06:29:09;;;;;;;16.83;12.98;;;;;;;;;;4372997;32;20419;-86
2022/08/23 06:31:47;;;;;;;18.83;13.45;;;;;;;;;;4375018;32;20207;-82
2022/08/23 06:34:18;;;;;;;20.35;14.63;;;;;;;;;;4375780;32;20593;-85
2022/08/23 06:36:47;;;;;;;16.20;14.07;;;;;;;;;;4375732;32;20199;-83
2022/08/23 06:39:15;;;;;;;16.67;14.05;;;;;;;;;;4375320;32;20528;-82
2022/08/23 06:41:47;;;;;;;18.48;14.07;;;;;;;;;;4375398;32;20257;-82
2022/08/23 06:44:15;;;;;;;15.90;13.30;;;;;;;;;;4375632;32;20202;-82
2022/08/23 06:46:43;;;;;;;19.87;13.57;;;;;;;;;;4375825;32;20702;-82
2022/08/23 06:49:11;;;;;;;16.83;13.00;;;;;;;;;;4375313;32;20611;-82
2022/08/23 06:51:41;;;;;;;17.83;12.43;;;;;;;;;;4375454;32;20520;-82
2022/08/23 06:54:11;;;;;;;16.08;12.60;;;;;;;;;;4375532;32;20589;-83
2022/08/23 06:56:39;;;;;;;19.50;12.88;;;;;;;;;;4375771;32;20731;-83
2022/08/23 06:59:08;;;;;;;16.20;12.82;;;;;;;;;;4375288;32;20504;-83
2022/08/23 07:01:39;;;;;;;13.27;11.88;;;;;;;;;;4375340;32;20531;-83
2022/08/23 07:04:08;;;;;;;18.90;13.07;;;;;;;;;;4375081;32;20516;-87
2022/08/23 07:06:36;;;;;;;15.63;13.25;;;;;;;;;;4375236;32;20609;-83
2022/08/23 07:09:04;;;;;;;16.52;14.07;;;;;;;;;;4375043;32;20662;-84
2022/08/23 07:11:32;;;;;;;18.17;14.30;;;;;;;;;;4375463;32;20508;-84
2022/08/23 07:14:00;;;;;;;22.08;15.18;;;;;;;;;;4375142;32;20278;-83
2022/08/23 07:16:33;;;;;;;20.45;15.48;;;;;;;;;;4375190;32;20512;-83
2022/08/23 07:19:01;;;;;;;21.58;15.93;;;;;;;;;;4375300;32;20623;-84
2022/08/23 07:21:28;;;;;;;16.73;14.93;;;;;;;;;;4374835;32;20619;-83
2022/08/23 07:23:56;;;;;;;18.30;16.37;;;;;;;;;;4374694;32;20512;-84
2022/08/23 07:26:25;;;;;;;19.92;14.95;;;;;;;;;;4374758;32;20501;-83
2022/08/23 07:28:52;;;;;;;18.45;15.25;;;;;;;;;;4374723;32;20269;-83
2022/08/23 07:31:22;;;;;;;19.80;17.27;;;;;;;;;;4374975;32;20514;-83
2022/08/23 07:33:51;;;;;;;17.77;15.63;;;;;;;;;;4374957;32;20591;-84
2022/08/23 07:36:21;;;;;;;27.37;18.40;;;;;;;;;;4374607;32;20540;-83
2022/08/23 07:38:49;;;;;;;27.25;17.67;;;;;;;;;;4374733;32;20627;-83
2022/08/23 07:41:18;;;;;;;19.23;16.80;;;;;;;;;;4374750;32;20631;-83
2022/08/23 07:43:46;;;;;;;20.12;15.98;;;;;;;;;;4374402;32;20506;-83
2022/08/23 07:46:13;;;;;;;20.58;16.73;;;;;;;;;;4374768;32;20564;-84
2022/08/23 07:48:41;;;;;;;18.55;15.88;;;;;;;;;;4374815;32;20501;-84
2022/08/23 07:51:13;;;;;;;20.25;17.20;;;;;;;;;;4374683;32;20364;-84
2022/08/23 07:53:42;;;;;;;24.83;19.77;;;;;;;;;;4374919;32;20657;-85
2022/08/23 07:56:12;;;;;;;28.65;17.37;;;;;;;;;;4374525;32;20571;-83
2022/08/23 07:58:39;;;;;;;23.45;17.55;;;;;;;;;;4374517;32;20547;-84
2022/08/23 08:01:14;;;;;;;34.60;19.80;;;;;;;;;;4374473;32;20301;-84
2022/08/23 08:03:42;;;;;;;22.77;18.45;;;;;;;;;;4374991;32;20588;-84
2022/08/23 08:06:14;;;;;;;22.73;19.20;;;;;;;;;;4374479;32;20564;-84
2022/08/23 08:08:43;;;;;;;20.27;16.35;;;;;;;;;;4374251;32;20567;-83
2022/08/23 08:11:12;;;;;;;21.23;18.40;;;;;;;;;;4374193;32;20537;-84
2022/08/23 08:13:43;;;;;;;23.02;17.75;;;;;;;;;;4374691;32;20524;-84
2022/08/23 08:16:19;;;;;;;27.20;17.00;;;;;;;;;;4374169;32;20659;-83
2022/08/23 08:18:47;;;;;;;20.10;17.40;;;;;;;;;;4374572;32;20644;-85
2022/08/23 08:21:17;;;;;;;21.20;16.27;;;;;;;;;;4374490;32;20571;-84
2022/08/23 08:23:47;;;;;;;22.55;17.08;;;;;;;;;;4374796;32;20261;-84
2022/08/23 08:26:15;;;;;;;22.20;17.48;;;;;;;;;;4374224;32;20643;-84
2022/08/23 08:28:44;;;;;;;19.58;16.77;;;;;;;;;;4374125;32;20572;-84
2022/08/23 08:31:13;;;;;;;18.73;16.80;;;;;;;;;;4373962;32;20694;-84
2022/08/23 08:33:41;;;;;;;16.42;13.30;;;;;;;;;;4373978;32;20540;-84
2022/08/23 08:36:27;;;;;;;19.20;14.70;;;;;;;;;;4373984;32;20587;-84
2022/08/23 08:38:55;;;;;;;15.85;14.20;;;;;;;;;;4374104;32;20749;-84
2022/08/23 08:41:38;;;;;;;15.55;13.73;;;;;;;;;;4374393;32;20575;-84
2022/08/23 08:44:22;;;;;;;20.92;14.43;;;;;;;;;;4373927;32;20641;-84
2022/08/23 08:46:53;;;;;;;20.52;15.63;;;;;;;;;;4373848;32;20344;-84
2022/08/23 08:49:32;;;;;;;18.85;14.52;;;;;;;;;;4373672;32;20260;-84
2022/08/23 08:52:07;;;;;;;15.75;14.07;;;;;;;;;;4374503;32;20500;-85
2022/08/23 08:54:36;;;;;;;15.32;12.60;;;;;;;;;;4373624;32;20668;-84
2022/08/23 08:57:07;;;;;;;14.02;11.80;;;;;;;;;;4374218;32;20671;-83
2022/08/23 08:59:48;;;;;;;18.48;14.35;;;;;;;;;;4374213;32;20552;-83
2022/08/23 09:02:18;;;;;;;17.02;11.48;;;;;;;;;;4373997;32;20344;-84
2022/08/23 09:04:46;;;;;;;13.43;12.07;;;;;;;;;;4374397;32;20717;-84
2022/08/23 09:07:22;;;;;;;14.43;11.63;;;;;;;;;;4373678;32;20638;-84
2022/08/23 09:10:09;;;;;;;13.80;12.32;;;;;;;;;;4373915;32;20660;-83
2022/08/23 09:12:48;;;;;;;15.60;12.27;;;;;;;;;;4373801;32;20535;-84
2022/08/23 09:15:26;;;;;;;12.57;11.27;;;;;;;;;;4373796;32;20559;-84
2022/08/23 09:17:56;;;;;;;14.02;12.52;;;;;;;;;;4374260;32;20628;-84
2022/08/23 09:20:27;;;;;;;17.52;12.27;;;;;;;;;;4373510;32;20559;-84
2022/08/23 09:23:06;;;;;;;17.42;12.65;;;;;;;;;;4373717;32;20257;-84
2022/08/23 09:25:34;;;;;;;18.65;12.57;;;;;;;;;;4373727;32;20305;-84
2022/08/23 09:28:02;;;;;;;19.62;13.50;;;;;;;;;;4373611;32;20648;-84
2022/08/23 09:30:49;;;;;;;16.00;12.85;;;;;;;;;;4373593;32;20359;-84
2022/08/23 09:33:18;;;;;;;13.85;12.40;;;;;;;;;;4373716;32;20332;-84
2022/08/23 09:36:05;;;;;;;15.32;13.32;;;;;;;;;;4373622;32;20677;-85
2022/08/23 09:38:35;;;;;;;16.23;14.05;;;;;;;;;;4373702;32;20524;-84
2022/08/23 09:41:15;;;;;;;22.85;12.63;;;;;;;;;;4373500;32;20304;-84
2022/08/23 09:43:47;;;;;;;18.05;12.20;;;;;;;;;;4373621;32;20521;-84
2022/08/23 09:46:25;;;;;;;26.85;16.00;;;;;;;;;;4373379;32;20687;-84
2022/08/23 09:48:54;;;;;;;14.70;13.18;;;;;;;;;;4373425;32;20509;-84
2022/08/23 09:51:27;;;;;;;16.27;12.98;;;;;;;;;;4373662;32;20489;-84
2022/08/23 09:54:07;;;;;;;15.25;13.73;;;;;;;;;;4373257;32;20588;-84
2022/08/23 09:56:39;;;;;;;13.50;12.02;;;;;;;;;;4374469;32;20549;-83
2022/08/23 09:59:22;;;;;;;15.02;13.02;;;;;;;;;;4373418;32;20587;-83
2022/08/23 10:01:50;;;;;;;14.93;11.55;;;;;;;;;;4373725;32;20550;-83
2022/08/23 10:04:23;;;;;;;13.40;12.13;;;;;;;;;;4373250;32;20692;-83
2022/08/23 10:06:52;;;;;;;15.38;10.70;;;;;;;;;;4376002;32;20658;-84
2022/08/23 10:09:26;;;;;;;13.07;9.93;;;;;;;;;;4376302;32;20677;-84
2022/08/23 10:11:56;;;;;;;10.30;8.38;;;;;;;;;;4376269;32;20721;-84
2022/08/23 10:14:25;;;;;;;14.57;10.43;;;;;;;;;;4375855;32;20552;-83
2022/08/23 10:17:09;;;;;;;12.90;9.80;;;;;;;;;;4376073;32;20514;-84
2022/08/23 10:19:47;;;;;;;11.95;10.82;;;;;;;;;;4375729;32;20548;-83
2022/08/23 10:22:20;;;;;;;9.45;8.15;;;;;;;;;;4376058;32;20580;-84
2022/08/23 10:25:01;;;;;;;8.43;7.18;;;;;;;;;;4376064;32;20571;-84
2022/08/23 10:30:28;;;;;;;9.65;7.62;;;;;;;;;;4376016;32;20299;-84
2022/08/23 10:33:06;;;;;;;10.27;7.40;;;;;;;;;;4376033;32;20273;-84
2022/08/23 10:35:43;;;;;;;14.87;7.82;;;;;;;;;;4375817;32;20574;-83
2022/08/23 10:38:27;;;;;;;7.53;6.75;;;;;;;;;;4375616;32;20539;-84
2022/08/23 10:41:00;;;;;;;6.93;6.22;;;;;;;;;;4375765;32;20669;-84
2022/08/23 10:43:38;;;;;;;10.63;6.62;;;;;;;;;;4376253;32;20599;-83
2022/08/23 10:46:08;;;;;;;6.20;5.03;;;;;;;;;;4375799;32;20634;-83
2022/08/23 10:48:39;;;;;;;5.65;4.75;;;;;;;;;;4375782;32;20567;-84
2022/08/23 10:51:11;;;;;;;8.80;5.25;;;;;;;;;;4375623;32;20728;-84
2022/08/23 10:53:45;;;;;;;11.27;5.05;;;;;;;;;;4375705;32;20255;-84
2022/08/23 10:56:18;;;;;;;7.97;5.05;;;;;;;;;;4375146;32;20615;-83
2022/08/23 10:58:50;;;;;;;9.50;5.40;;;;;;;;;;4375980;32;20645;-84
2022/08/23 11:01:21;;;;;;;7.60;5.90;;;;;;;;;;4375752;32;20632;-84
2022/08/23 11:04:01;;;;;;;9.07;6.78;;;;;;;;;;4361935;32;20651;-84
2022/08/23 11:06:51;;;;;;;10.20;7.20;;;;;;;;;;4375330;32;20566;-84
2022/08/23 11:09:58;;;;;;;9.75;8.80;;;;;;;;;;4375341;32;20654;-85
2022/08/23 11:12:31;;;;;;;12.52;10.00;;;;;;;;;;4375437;32;20559;-84
2022/08/23 11:15:20;;;;;;;14.13;10.55;;;;;;;;;;4374965;32;20605;-83
2022/08/23 11:17:58;;;;;;;16.33;10.80;;;;;;;;;;4374736;32;20632;-83
2022/08/23 11:21:01;;;;;;;17.92;11.82;;;;;;;;;;4374660;32;20548;-83
2022/08/23 11:23:54;;;;;;;13.20;11.77;;;;;;;;;;4375526;32;20623;-82
2022/08/23 11:27:12;;;;;;;14.55;11.82;;;;;;;;;;4375066;32;20600;-82
2022/08/23 11:29:42;;;;;;;15.90;12.75;;;;;;;;;;4374930;32;20606;-83
2022/08/23 11:32:25;;;;;;;15.07;13.32;;;;;;;;;;4374853;32;20520;-83
2022/08/23 11:35:04;;;;;;;14.50;13.02;;;;;;;;;;4374952;32;20587;-83
2022/08/23 11:37:50;;;;;;;15.43;13.43;;;;;;;;;;4374888;32;20612;-83
2022/08/23 11:40:56;;;;;;;20.30;14.25;;;;;;;;;;4374492;32;20307;-83
2022/08/23 11:43:28;;;;;;;15.60;13.68;;;;;;;;;;4375153;32;20563;-83
2022/08/23 11:46:31;;;;;;;22.50;14.70;;;;;;;;;;4374602;32;20552;-83
2022/08/23 11:49:26;;;;;;;27.20;14.70;;;;;;;;;;4374340;32;20545;-84
2022/08/23 11:52:05;;;;;;;14.60;12.93;;;;;;;;;;4374640;32;20474;-83
2022/08/23 11:54:56;;;;;;;20.23;13.98;;;;;;;;;;4374616;32;20681;-83
2022/08/23 11:57:35;;;;;;;21.30;13.93;;;;;;;;;;4374733;32;20628;-83
2022/08/23 12:00:10;;;;;;;20.20;13.43;;;;;;;;;;4374509;32;20611;-83
2022/08/23 12:03:04;;;;;;;20.77;14.02;;;;;;;;;;4374851;32;20308;-82
2022/08/23 12:06:11;;;;;;;20.75;15.52;;;;;;;;;;4367690;32;20711;-83
2022/08/23 12:09:00;;;;;;;14.80;13.20;;;;;;;;;;4374408;32;20572;-82
2022/08/23 12:12:09;;;;;;;16.37;11.70;;;;;;;;;;4374409;32;20661;-82
2022/08/23 12:14:49;;;;;;;17.60;10.60;;;;;;;;;;4374275;32;20771;-82
2022/08/23 12:18:07;;;;;;;13.27;9.60;;;;;;;;;;4374561;32;20700;-82
2022/08/23 12:20:37;;;;;;;13.93;11.10;;;;;;;;;;4312726;33;20816;-82
2022/08/23 12:23:14;;;;;;;18.92;11.52;;;;;;;;;;4369204;32;20631;-82
2022/08/23 12:25:42;;;;;;;10.75;9.35;;;;;;;;;;4373876;32;20571;-82
2022/08/23 12:28:38;;;;;;;11.07;9.20;;;;;;;;;;4374124;32;20636;-83
2022/08/23 12:31:15;;;;;;;13.55;10.43;;;;;;;;;;4373698;32;20613;-83
2022/08/23 12:34:03;;;;;;;20.65;11.25;;;;;;;;;;4374276;32;20534;-83
2022/08/23 12:36:39;;;;;;;23.08;12.43;;;;;;;;;;4373947;32;20532;-83
2022/08/23 12:39:20;;;;;;;20.83;12.77;;;;;;;;;;4373523;32;20533;-83
2022/08/23 12:41:55;;;;;;;15.15;11.43;;;;;;;;;;4373686;32;20615;-82
2022/08/23 12:44:25;;;;;;;14.87;13.15;;;;;;;;;;4373672;32;20601;-82
2022/08/23 12:46:53;;;;;;;14.30;12.80;;;;;;;;;;4374208;32;20619;-82
2022/08/23 12:49:27;;;;;;;12.05;9.73;;;;;;;;;;4373548;32;20238;-83
2022/08/23 12:51:59;;;;;;;12.65;9.27;;;;;;;;;;4374046;32;20559;-83
2022/08/23 12:54:35;;;;;;;9.50;8.25;;;;;;;;;;4373572;32;20575;-82
2022/08/23 12:57:10;;;;;;;16.80;10.07;;;;;;;;;;4373876;32;20272;-83
2022/08/23 12:59:43;;;;;;;15.80;10.23;;;;;;;;;;4373733;32;20708;-82
2022/08/23 13:02:26;;;;;;;15.70;10.43;;;;;;;;;;4373527;32;20555;-83
2022/08/23 13:04:57;;;;;;;26.90;10.90;;;;;;;;;;4373662;32;20739;-82
2022/08/23 13:07:26;;;;;;;12.60;9.48;;;;;;;;;;4373968;32;20592;-82
2022/08/23 13:09:56;;;;;;;15.57;8.70;;;;;;;;;;4373418;32;20564;-83
2022/08/23 13:12:24;;;;;;;12.50;8.90;;;;;;;;;;4373599;32;20214;-82
2022/08/23 13:14:53;;;;;;;12.88;8.05;;;;;;;;;;4373479;32;20559;-83
2022/08/23 13:17:31;;;;;;;11.23;7.95;;;;;;;;;;4373353;32;20533;-82
2022/08/23 13:20:18;;;;;;;11.52;9.32;;;;;;;;;;4373245;32;20645;-82
2022/08/23 13:23:00;;;;;;;11.80;8.25;;;;;;;;;;4373503;32;20568;-82
2022/08/23 13:25:30;;;;;;;10.90;8.45;;;;;;;;;;4373329;32;20654;-82
2022/08/23 13:28:00;;;;;;;9.18;8.23;;;;;;;;;;4373574;32;20681;-82
2022/08/23 13:30:30;;;;;;;13.18;8.57;;;;;;;;;;4373221;32;20527;-82
2022/08/23 13:33:21;;;;;;;12.55;9.63;;;;;;;;;;4373631;32;20666;-82
2022/08/23 13:35:49;;;;;;;7.43;6.60;;;;;;;;;;4373160;32;20794;-82
2022/08/23 13:38:23;;;;;;;12.05;7.47;;;;;;;;;;4373164;32;20267;-82
2022/08/23 13:41:01;;;;;;;18.45;7.65;;;;;;;;;;4372905;32;20583;-82
2022/08/23 13:43:33;;;;;;;13.95;8.02;;;;;;;;;;4373716;32;20659;-83
2022/08/23 13:46:11;;;;;;;10.52;7.20;;;;;;;;;;4373190;32;20277;-82
2022/08/23 13:48:47;;;;;;;11.30;6.97;;;;;;;;;;4373397;32;20489;-83
2022/08/23 13:51:24;;;;;;;12.15;7.75;;;;;;;;;;4373150;32;20594;-83
2022/08/23 13:53:53;;;;;;;11.00;7.57;;;;;;;;;;4373076;32;20615;-83
2022/08/23 13:56:21;;;;;;;10.23;6.75;;;;;;;;;;4373118;32;20586;-82
2022/08/23 13:58:56;;;;;;;10.73;7.03;;;;;;;;;;4373472;32;20635;-83
2022/08/23 14:01:24;;;;;;;10.93;5.72;;;;;;;;;;4373458;32;20591;-83
2022/08/23 14:03:51;;;;;;;8.20;5.55;;;;;;;;;;4373044;32;20657;-83
2022/08/23 14:06:19;;;;;;;7.45;5.60;;;;;;;;;;4373036;32;20547;-83
2022/08/23 14:08:47;;;;;;;9.10;5.80;;;;;;;;;;4373251;32;20673;-83
2022/08/23 14:11:16;;;;;;;9.35;5.40;;;;;;;;;;4372679;32;20636;-84
2022/08/23 14:13:46;;;;;;;12.37;6.15;;;;;;;;;;4372866;32;20513;-84
2022/08/23 14:16:18;;;;;;;11.45;7.00;;;;;;;;;;4373299;32;20545;-84
2022/08/23 14:18:45;;;;;;;8.20;6.50;;;;;;;;;;4372858;32;20362;-84
2022/08/23 14:21:13;;;;;;;14.52;6.68;;;;;;;;;;4373021;32;20668;-84
2022/08/23 14:23:40;;;;;;;8.70;6.53;;;;;;;;;;4373106;32;20244;-84
2022/08/23 14:26:11;;;;;;;6.72;5.95;;;;;;;;;;4373189;32;20558;-84
2022/08/23 14:28:39;;;;;;;8.20;6.40;;;;;;;;;;4373046;32;20653;-84
2022/08/23 14:31:07;;;;;;;9.05;6.82;;;;;;;;;;4373209;32;20632;-83
2022/08/23 14:33:34;;;;;;;12.00;6.18;;;;;;;;;;4373241;32;20262;-84
2022/08/23 14:36:02;;;;;;;9.48;6.55;;;;;;;;;;4372798;32;20351;-82
2022/08/23 14:38:29;;;;;;;10.27;6.15;;;;;;;;;;4372937;32;20595;-83
2022/08/23 14:40:59;;;;;;;6.97;6.05;;;;;;;;;;4373150;32;20529;-83
2022/08/23 14:43:27;;;;;;;7.00;6.30;;;;;;;;;;4373568;32;20548;-84
2022/08/23 14:45:57;;;;;;;8.02;6.10;;;;;;;;;;4372875;32;20649;-82
2022/08/23 14:48:25;;;;;;;9.85;6.32;;;;;;;;;;4373181;32;20547;-82
2022/08/23 14:50:53;;;;;;;10.30;6.45;;;;;;;;;;4372717;32;20573;-82
2022/08/23 14:53:26;;;;;;;8.77;5.47;;;;;;;;;;4374241;32;20563;-82
2022/08/23 14:55:54;;;;;;;8.27;6.30;;;;;;;;;;4375250;32;20324;-83
2022/08/23 14:58:22;;;;;;;10.52;6.12;;;;;;;;;;4375424;32;20507;-83
2022/08/23 15:00:51;;;;;;;7.95;6.10;;;;;;;;;;4375387;32;20643;-82
2022/08/23 15:03:24;;;;;;;9.57;6.05;;;;;;;;;;4375131;32;20584;-85
2022/08/23 15:05:52;;;;;;;7.47;6.12;;;;;;;;;;4375168;32;20343;-87
2022/08/23 15:08:20;;;;;;;15.27;6.20;;;;;;;;;;4375535;32;20556;-86